Time;durP1;ratioP1;P1;durP2;ratioP2;P2;SDS_P1;SDS_P2;PMS_P1;PMS_P2;Temp;Humidity;BMP_temperature;BMP_pressure;BME280_temperature;BME280_humidity;BME280_pressure;Samples;Min_cycle;Max_cycle;Signal;HPM_P1;HPM_P2
2021/12/28 00:01:31;;;;;;;;;20.25;19.00;;;;;7.96;100.00;99286.69;4989858;28;10952;-71
2021/12/28 00:04:04;;;;;;;;;27.25;26.25;;;;;7.92;100.00;99282.72;4989401;28;10684;-69
2021/12/28 00:06:31;;;;;;;;;22.25;22.25;;;;;7.91;100.00;99291.84;4989598;28;10942;-71
2021/12/28 00:08:57;;;;;;;;;26.75;21.00;;;;;7.92;100.00;99287.28;4989624;28;10687;-71
2021/12/28 00:11:24;;;;;;;;;18.00;17.00;;;;;7.91;100.00;99288.34;4988557;28;10914;-70
2021/12/28 00:13:52;;;;;;;;;27.00;20.50;;;;;7.84;100.00;99284.81;4989888;28;10568;-70
2021/12/28 00:16:31;;;;;;;;;29.25;25.25;;;;;7.84;100.00;99285.66;4989053;28;10599;-72
2021/12/28 00:18:59;;;;;;;;;24.25;22.50;;;;;7.82;100.00;99292.28;4987368;28;11009;-71
2021/12/28 00:21:26;;;;;;;;;12.75;12.75;;;;;7.79;100.00;99296.25;4989094;28;10956;-70
2021/12/28 00:23:52;;;;;;;;;29.00;23.75;;;;;7.77;100.00;99297.50;4988569;28;11427;-71
2021/12/28 00:26:22;;;;;;;;;23.75;23.25;;;;;7.77;100.00;99284.84;4986756;28;10950;-70
2021/12/28 00:28:50;;;;;;;;;22.25;20.00;;;;;7.77;100.00;99290.22;4989513;28;10892;-71
2021/12/28 00:31:17;;;;;;;;;14.50;13.75;;;;;7.71;100.00;99291.91;5003009;28;10869;-71
2021/12/28 00:33:45;;;;;;;;;18.50;17.00;;;;;7.72;100.00;99290.88;4989509;28;10762;-71
2021/12/28 00:36:13;;;;;;;;;22.50;22.00;;;;;7.71;100.00;99288.38;4989063;28;10706;-71
2021/12/28 00:38:40;;;;;;;;;23.50;21.25;;;;;7.65;100.00;99284.63;4987419;28;10878;-70
2021/12/28 00:41:07;;;;;;;;;22.00;16.50;;;;;7.66;100.00;99282.75;4988659;28;11045;-70
2021/12/28 00:43:34;;;;;;;;;23.25;20.50;;;;;7.65;100.00;99273.03;4987446;28;10681;-70
2021/12/28 00:46:01;;;;;;;;;22.00;16.25;;;;;7.60;100.00;99265.59;4988682;28;11010;-72
2021/12/28 00:48:28;;;;;;;;;17.25;17.25;;;;;7.61;100.00;99272.63;4989052;28;10960;-71
2021/12/28 00:50:55;;;;;;;;;14.75;14.00;;;;;7.59;100.00;99269.31;4988957;28;10763;-72
2021/12/28 00:53:22;;;;;;;;;14.00;11.00;;;;;7.57;100.00;99273.25;4989194;28;10639;-71
2021/12/28 00:55:48;;;;;;;;;18.50;15.75;;;;;7.57;100.00;99274.06;4988888;28;10425;-71
2021/12/28 00:58:16;;;;;;;;;17.00;13.25;;;;;7.57;100.00;99275.94;4987351;28;10747;-71
2021/12/28 01:00:43;;;;;;;;;18.25;14.50;;;;;7.57;100.00;99274.06;4988542;28;10776;-71
2021/12/28 01:03:12;;;;;;;;;15.50;15.00;;;;;7.56;100.00;99272.44;4986724;28;10823;-71
2021/12/28 01:05:39;;;;;;;;;17.25;13.00;;;;;7.56;100.00;99268.91;4986884;28;10866;-71
2021/12/28 01:08:07;;;;;;;;;15.00;14.00;;;;;7.53;100.00;99267.47;4988076;28;10655;-70
2021/12/28 01:10:37;;;;;;;;;21.25;18.25;;;;;7.56;100.00;99258.13;4987974;28;10835;-71
2021/12/28 01:13:03;;;;;;;;;14.00;13.25;;;;;7.58;100.00;99259.56;4987045;28;10752;-71
2021/12/28 01:15:31;;;;;;;;;14.75;14.00;;;;;7.64;100.00;99268.69;4987174;28;10812;-70
2021/12/28 01:17:58;;;;;;;;;20.25;13.75;;;;;7.58;100.00;99267.66;5002762;28;10747;-70
2021/12/28 01:20:25;;;;;;;;;14.75;10.75;;;;;7.59;100.00;99258.53;4988538;28;10837;-70
2021/12/28 01:22:52;;;;;;;;;16.75;11.75;;;;;7.61;100.00;99263.72;4988284;28;10653;-71
2021/12/28 01:25:19;;;;;;;;;14.25;12.00;;;;;7.60;100.00;99253.97;4988458;28;10656;-71
2021/12/28 01:27:45;;;;;;;;;21.00;17.00;;;;;7.60;100.00;99257.50;5001310;28;10794;-71
2021/12/28 01:30:14;;;;;;;;;17.00;14.25;;;;;7.61;100.00;99255.63;5002623;28;10832;-71
2021/12/28 01:32:41;;;;;;;;;17.25;12.50;;;;;7.57;100.00;99257.91;4986658;28;10668;-70
2021/12/28 01:35:10;;;;;;;;;12.00;11.00;;;;;7.53;100.00;99251.31;4987106;28;10762;-72
2021/12/28 01:37:37;;;;;;;;;15.00;13.00;;;;;7.57;100.00;99257.91;5001465;28;10554;-71
2021/12/28 01:40:07;;;;;;;;;8.50;8.50;;;;;7.58;100.00;99259.56;4988117;28;10573;-71
2021/12/28 01:42:52;;;;;;;;;9.50;9.50;;;;;7.56;100.00;99250.06;4988155;28;10459;-71
2021/12/28 01:45:18;;;;;;;;;18.00;14.75;;;;;7.60;100.00;99251.28;4987422;28;10476;-70
2021/12/28 01:47:45;;;;;;;;;8.00;8.00;;;;;7.60;100.00;99254.81;4987706;28;10756;-70
2021/12/28 01:50:11;;;;;;;;;12.25;12.00;;;;;7.58;100.00;99256.88;5002956;28;10645;-72
2021/12/28 01:52:38;;;;;;;;;6.00;5.75;;;;;7.56;100.00;99252.75;4987448;28;10602;-71
2021/12/28 01:55:05;;;;;;;;;9.00;7.75;;;;;7.52;100.00;99255.03;4987791;28;10566;-71
2021/12/28 01:57:31;;;;;;;;;11.75;11.00;;;;;7.53;100.00;99255.84;4987354;28;10564;-71
2021/12/28 01:59:58;;;;;;;;;11.00;9.50;;;;;7.50;100.00;99246.34;4986501;28;10740;-71
2021/12/28 02:02:24;;;;;;;;;11.75;6.50;;;;;7.47;100.00;99249.44;4987604;28;10738;-69
2021/12/28 02:04:51;;;;;;;;;11.50;11.25;;;;;7.46;100.00;99250.50;4987402;28;11252;-69
2021/12/28 02:07:17;;;;;;;;;10.50;10.50;;;;;7.41;100.00;99245.69;4986340;28;10711;-70
2021/12/28 02:09:44;;;;;;;;;8.25;5.75;;;;;7.40;100.00;99246.75;5002384;28;11305;-70
2021/12/28 02:12:10;;;;;;;;;12.25;8.50;;;;;7.37;100.00;99247.16;4987363;28;10650;-70
2021/12/28 02:14:43;;;;;;;;;13.00;12.25;;;;;7.38;100.00;99245.28;5002626;28;11065;-70
2021/12/28 02:17:11;;;;;;;;;13.50;12.50;;;;;7.40;100.00;99244.03;4986664;28;10651;-70
2021/12/28 02:19:37;;;;;;;;;12.00;9.00;;;;;7.41;100.00;99240.31;4987298;28;10578;-70
2021/12/28 02:22:04;;;;;;;;;10.50;8.25;;;;;7.41;100.00;99243.00;4985882;28;10324;-70
2021/12/28 02:24:30;;;;;;;;;7.75;5.50;;;;;7.39;100.00;99238.88;4987345;28;10241;-70
2021/12/28 02:26:57;;;;;;;;;10.25;8.50;;;;;7.41;100.00;99240.31;4986943;28;11140;-69
2021/12/28 02:29:23;;;;;;;;;8.75;7.50;;;;;7.41;100.00;99237.63;4986376;28;10403;-69
2021/12/28 02:31:55;;;;;;;;;9.00;9.00;;;;;7.44;100.00;99232.88;5002403;28;10472;-70
2021/12/28 02:34:25;;;;;;;;;16.00;13.50;;;;;7.50;100.00;99230.19;5001813;28;11213;-71
2021/12/28 02:36:54;;;;;;;;;12.75;11.00;;;;;7.49;100.00;99225.84;5000832;28;10733;-70
2021/12/28 02:39:20;;;;;;;;;12.25;11.50;;;;;7.51;100.00;99221.06;4987199;28;10637;-69
2021/12/28 02:41:46;;;;;;;;;11.75;8.00;;;;;7.54;100.00;99227.91;4985811;28;10681;-70
2021/12/28 02:44:13;;;;;;;;;11.75;8.75;;;;;7.53;100.00;99218.16;4987564;28;11302;-71
2021/12/28 02:46:39;;;;;;;;;13.25;9.50;;;;;7.55;100.00;99214.22;5002049;28;10414;-70
2021/12/28 02:49:06;;;;;;;;;6.25;5.75;;;;;7.52;100.00;99209.25;4986067;28;10889;-70
2021/12/28 02:51:33;;;;;;;;;6.25;6.25;;;;;7.55;100.00;99210.69;4969794;28;10466;-71
2021/12/28 02:54:00;;;;;;;;;11.25;10.00;;;;;7.52;100.00;99209.25;4987186;28;10237;-70
2021/12/28 02:56:26;;;;;;;;;9.50;9.00;;;;;7.58;100.00;99207.59;4986394;28;10379;-69
2021/12/28 02:58:53;;;;;;;;;7.00;7.00;;;;;7.58;100.00;99204.88;5001997;28;10566;-70
2021/12/28 03:01:25;;;;;;;;;12.75;8.75;;;;;7.60;100.00;99210.91;4985858;28;10368;-70
2021/12/28 03:04:04;;;;;;;;;8.25;7.75;;;;;7.63;100.00;99211.28;5001274;28;10656;-70
2021/12/28 03:06:32;;;;;;;;;10.00;9.50;;;;;7.59;100.00;99206.53;4986503;28;10613;-70
2021/12/28 03:09:01;;;;;;;;;7.50;6.25;;;;;7.63;100.00;99211.28;4990492;28;10671;-70
2021/12/28 03:11:29;;;;;;;;;9.25;9.25;;;;;7.66;100.00;99208.19;5004450;28;10498;-69
2021/12/28 03:14:00;;;;;;;;;7.50;7.50;;;;;7.66;100.00;99204.66;4973527;28;10474;-70
2021/12/28 03:16:29;;;;;;;;;6.00;6.00;;;;;7.67;100.00;99206.31;4988017;28;10620;-70
2021/12/28 03:18:56;;;;;;;;;5.25;5.25;;;;;7.66;100.00;99197.41;4990120;28;10308;-70
2021/12/28 03:21:24;;;;;;;;;6.75;5.00;;;;;7.69;100.00;99193.50;4991004;28;10346;-69
2021/12/28 03:23:51;;;;;;;;;4.75;4.75;;;;;7.68;100.00;99197.19;4990907;28;10515;-70
2021/12/28 03:26:18;;;;;;;;;5.75;5.00;;;;;7.68;100.00;99197.19;4989018;28;10398;-70
2021/12/28 03:28:46;;;;;;;;;6.00;6.00;;;;;7.70;100.00;99189.75;4990413;28;10243;-70
2021/12/28 03:31:16;;;;;;;;;7.25;7.25;;;;;7.67;100.00;99177.50;5005181;28;10249;-70
2021/12/28 03:33:45;;;;;;;;;8.50;7.25;;;;;7.68;100.00;99179.19;4990518;28;10365;-70
2021/12/28 03:36:13;;;;;;;;;7.00;6.25;;;;;7.71;100.00;99177.94;5004039;28;10510;-69
2021/12/28 03:38:42;;;;;;;;;6.00;6.00;;;;;7.69;100.00;99172.78;4990153;28;10417;-70
2021/12/28 03:41:09;;;;;;;;;8.00;4.75;;;;;7.71;100.00;99169.88;5003939;28;10261;-70
2021/12/28 03:43:42;;;;;;;;;5.75;5.75;;;;;7.71;100.00;99170.69;4990781;28;10249;-69
2021/12/28 03:46:09;;;;;;;;;10.25;9.25;;;;;7.73;100.00;99167.78;4989606;28;10314;-70
2021/12/28 03:48:37;;;;;;;;;4.00;4.00;;;;;7.72;100.00;99166.13;4990058;28;10391;-70
2021/12/28 03:51:06;;;;;;;;;11.00;8.00;;;;;7.75;100.00;99164.88;4989680;28;10393;-69
2021/12/28 03:53:34;;;;;;;;;4.75;4.75;;;;;7.75;100.00;99162.19;4990268;28;10552;-70
2021/12/28 03:56:02;;;;;;;;;7.00;6.00;;;;;7.75;100.00;99154.94;4988434;28;10480;-70
2021/12/28 03:58:28;;;;;;;;;5.00;5.00;;;;;7.78;100.00;99148.28;4988941;28;10418;-70
2021/12/28 04:00:55;;;;;;;;;8.25;8.25;;;;;7.78;100.00;99148.28;4989715;28;10241;-71
2021/12/28 04:03:22;;;;;;;;;6.25;6.00;;;;;7.79;100.00;99144.56;4989652;28;10531;-71
2021/12/28 04:05:48;;;;;;;;;9.75;7.00;;;;;7.78;100.00;99148.28;4988412;28;10399;-70
2021/12/28 04:08:21;;;;;;;;;7.00;5.50;;;;;7.74;100.00;99141.69;5005215;28;10409;-71
2021/12/28 04:11:00;;;;;;;;;7.50;7.50;;;;;7.72;100.00;99144.59;5004495;28;11411;-72
2021/12/28 04:13:27;;;;;;;;;7.25;6.50;;;;;7.71;100.00;99134.84;4989922;28;10566;-70
2021/12/28 04:15:54;;;;;;;;;6.25;3.00;;;;;7.73;100.00;99135.47;4989385;28;10416;-70
2021/12/28 04:18:21;;;;;;;;;4.00;4.00;;;;;7.75;100.00;99132.56;4989331;28;10344;-71
2021/12/28 04:20:47;;;;;;;;;6.00;6.00;;;;;7.73;100.00;99130.06;4989123;28;10347;-71
2021/12/28 04:23:14;;;;;;;;;5.50;4.75;;;;;7.73;100.00;99138.16;4989606;28;10526;-71
2021/12/28 04:25:41;;;;;;;;;7.00;6.00;;;;;7.75;100.00;99129.84;4989467;28;11074;-70
2021/12/28 04:28:07;;;;;;;;;4.50;4.50;;;;;7.75;100.00;99135.25;4989205;28;10343;-69
2021/12/28 04:30:34;;;;;;;;;5.00;4.25;;;;;7.71;100.00;99129.47;4987981;28;10253;-70
2021/12/28 04:33:00;;;;;;;;;9.00;5.50;;;;;7.69;100.00;99118.91;5002699;28;10185;-71
2021/12/28 04:35:27;;;;;;;;;8.25;6.00;;;;;7.69;100.00;99110.00;4989399;28;10310;-70
2021/12/28 04:37:54;;;;;;;;;8.00;6.75;;;;;7.69;100.00;99112.69;4987512;28;10314;-69
2021/12/28 04:40:22;;;;;;;;;7.25;6.50;;;;;7.71;100.00;99106.03;4989563;28;10363;-71
2021/12/28 04:42:48;;;;;;;;;7.25;7.00;;;;;7.72;100.00;99104.19;4989084;28;10356;-71
2021/12/28 04:45:16;;;;;;;;;8.25;6.25;;;;;7.73;100.00;99116.59;5004111;28;10551;-71
2021/12/28 04:47:43;;;;;;;;;8.50;5.50;;;;;7.69;100.00;99113.50;4986021;28;10349;-71
2021/12/28 04:50:11;;;;;;;;;7.25;5.00;;;;;7.69;100.00;99110.81;4989437;28;10368;-71
2021/12/28 04:52:39;;;;;;;;;7.00;5.00;;;;;7.72;100.00;99106.88;4989080;28;10381;-71
2021/12/28 04:55:23;;;;;;;;;8.00;7.00;;;;;7.69;100.00;99104.59;4989375;28;10472;-71
2021/12/28 04:57:50;;;;;;;;;5.25;5.25;;;;;7.69;100.00;99094.66;5001775;28;10551;-72
2021/12/28 05:00:21;;;;;;;;;8.75;6.00;;;;;7.67;100.00;99094.03;4988381;28;10301;-70
2021/12/28 05:02:48;;;;;;;;;6.00;5.00;;;;;7.69;100.00;99091.97;4988349;28;10366;-71
2021/12/28 05:05:15;;;;;;;;;6.00;4.25;;;;;7.67;100.00;99080.56;4986703;28;10280;-71
2021/12/28 05:07:42;;;;;;;;;6.25;4.75;;;;;7.67;100.00;99085.94;5003451;28;10352;-71
2021/12/28 05:10:09;;;;;;;;;7.00;4.50;;;;;7.72;100.00;99086.16;4987778;28;10194;-70
2021/12/28 05:12:36;;;;;;;;;7.50;5.00;;;;;7.71;100.00;99073.72;4988473;28;10399;-71
2021/12/28 05:15:04;;;;;;;;;3.00;3.00;;;;;7.73;100.00;99073.50;5003511;28;10270;-71
2021/12/28 05:17:31;;;;;;;;;9.00;7.00;;;;;7.75;100.00;99075.97;4986629;28;10268;-71
2021/12/28 05:19:58;;;;;;;;;5.75;3.50;;;;;7.76;100.00;99077.63;4988013;28;11486;-69
2021/12/28 05:22:25;;;;;;;;;6.25;5.00;;;;;7.77;100.00;99080.13;4988434;28;10997;-70
2021/12/28 05:24:51;;;;;;;;;3.00;3.00;;;;;7.78;100.00;99067.47;4988574;28;10380;-71
2021/12/28 05:27:18;;;;;;;;;6.00;4.75;;;;;7.78;100.00;99064.78;4987759;28;10330;-69
2021/12/28 05:29:44;;;;;;;;;3.00;3.00;;;;;7.81;100.00;99051.69;4988065;28;10261;-71
2021/12/28 05:32:10;;;;;;;;;11.25;7.00;;;;;7.81;100.00;99057.09;4987710;28;10310;-71
2021/12/28 05:34:37;;;;;;;;;6.00;4.00;;;;;7.84;100.00;99059.34;4987558;28;10174;-71
2021/12/28 05:37:04;;;;;;;;;5.00;5.00;;;;;7.83;100.00;99051.47;4987729;28;10234;-71
2021/12/28 05:39:30;;;;;;;;;4.25;4.25;;;;;7.84;100.00;99050.44;4987962;28;10275;-70
2021/12/28 05:41:57;;;;;;;;;5.75;4.00;;;;;7.86;100.00;99049.19;5003311;28;11138;-70
2021/12/28 05:44:24;;;;;;;;;4.25;4.25;;;;;7.88;100.00;99049.78;4988217;28;10160;-71
2021/12/28 05:46:51;;;;;;;;;3.00;3.00;;;;;7.88;100.00;99046.28;4986280;28;10238;-71
2021/12/28 05:49:18;;;;;;;;;5.50;5.50;;;;;7.89;100.00;99040.66;4988103;28;10430;-71
2021/12/28 05:51:45;;;;;;;;;1.25;1.25;;;;;7.89;100.00;99045.22;4987805;28;10248;-70
2021/12/28 05:54:12;;;;;;;;;4.00;2.00;;;;;7.88;100.00;99036.31;4987917;28;10166;-70
2021/12/28 05:56:39;;;;;;;;;10.00;6.50;;;;;7.93;100.00;99032.97;5001069;28;10317;-71
2021/12/28 05:59:05;;;;;;;;;4.75;2.25;;;;;7.93;100.00;99025.75;4987905;28;10299;-70
2021/12/28 06:01:31;;;;;;;;;7.00;6.00;;;;;7.93;100.00;99014.97;4987530;28;10886;-69
2021/12/28 06:03:58;;;;;;;;;4.00;2.25;;;;;7.95;100.00;99022.84;4987629;28;10426;-71
2021/12/28 06:06:25;;;;;;;;;7.50;6.50;;;;;7.93;100.00;99014.97;4987372;28;10265;-70
2021/12/28 06:08:55;;;;;;;;;3.50;3.00;;;;;7.92;100.00;99015.97;4985620;28;13069;-70
2021/12/28 06:11:22;;;;;;;;;8.00;4.50;;;;;7.94;100.00;99013.91;4987292;28;10254;-71
2021/12/28 06:13:48;;;;;;;;;5.00;5.00;;;;;7.94;100.00;99018.47;4987896;28;10386;-70
2021/12/28 06:16:15;;;;;;;;;7.00;6.00;;;;;7.94;100.00;99013.09;4987396;28;10230;-70
2021/12/28 06:18:42;;;;;;;;;4.75;3.00;;;;;7.95;100.00;99007.50;4987419;28;10232;-70
2021/12/28 06:21:09;;;;;;;;;10.50;8.50;;;;;7.95;100.00;99010.19;4987157;28;10312;-70
2021/12/28 06:23:35;;;;;;;;;5.75;5.75;;;;;7.94;100.00;99008.53;4987366;28;11318;-71
2021/12/28 06:26:02;;;;;;;;;6.50;6.50;;;;;7.97;100.00;99005.41;4985501;28;10252;-70
2021/12/28 06:28:28;;;;;;;;;7.50;6.75;;;;;7.97;100.00;98991.09;4987179;28;10418;-70
2021/12/28 06:30:56;;;;;;;;;9.25;7.75;;;;;8.00;100.00;99004.13;4987102;28;10466;-71
2021/12/28 06:33:25;;;;;;;;;5.50;5.50;;;;;7.99;100.00;99003.31;5002402;28;10392;-71
2021/12/28 06:35:52;;;;;;;;;4.00;4.00;;;;;8.00;100.00;99007.66;4986007;28;10271;-71
2021/12/28 06:38:19;;;;;;;;;7.75;4.00;;;;;7.99;100.00;99000.63;4969710;28;10406;-71
2021/12/28 06:40:45;;;;;;;;;10.25;7.75;;;;;8.01;100.00;98997.69;4987064;28;10517;-71
2021/12/28 06:43:13;;;;;;;;;7.50;7.00;;;;;8.02;100.00;99002.06;4989237;28;10395;-71
2021/12/28 06:45:39;;;;;;;;;8.00;6.50;;;;;8.03;100.00;98991.06;5005208;28;10466;-70
2021/12/28 06:48:06;;;;;;;;;9.75;6.50;;;;;8.01;100.00;98984.22;4991305;28;10400;-71
2021/12/28 06:50:33;;;;;;;;;6.00;6.00;;;;;8.05;100.00;98992.69;4990754;28;10245;-70
2021/12/28 06:53:00;;;;;;;;;7.75;7.00;;;;;8.04;100.00;98981.09;4991216;28;10433;-70
2021/12/28 06:55:26;;;;;;;;;8.75;7.25;;;;;8.05;100.00;98979.22;4989869;28;10469;-71
2021/12/28 06:57:53;;;;;;;;;11.75;6.50;;;;;8.06;100.00;98979.00;4990585;28;10346;-71
2021/12/28 07:00:20;;;;;;;;;4.00;4.00;;;;;8.07;100.00;98980.66;4991000;28;10325;-72
2021/12/28 07:02:47;;;;;;;;;12.00;7.50;;;;;8.09;100.00;98975.03;4990942;28;10309;-71
2021/12/28 07:05:13;;;;;;;;;7.25;6.75;;;;;8.10;100.00;98972.13;4990631;28;10255;-71
2021/12/28 07:07:40;;;;;;;;;6.00;6.00;;;;;8.11;100.00;98970.25;4989925;28;10414;-71
2021/12/28 07:10:08;;;;;;;;;4.25;4.25;;;;;8.10;100.00;98961.34;5005714;28;10375;-71
2021/12/28 07:12:35;;;;;;;;;6.50;5.00;;;;;8.11;100.00;98960.31;4990520;28;10246;-71
2021/12/28 07:15:04;;;;;;;;;9.50;6.00;;;;;8.14;100.00;98965.25;4990541;28;10161;-70
2021/12/28 07:17:31;;;;;;;;;6.00;5.00;;;;;8.17;100.00;98959.41;4987526;28;10262;-71
2021/12/28 07:19:57;;;;;;;;;7.00;7.00;;;;;8.18;100.00;98969.19;4973596;28;10425;-72
2021/12/28 07:22:24;;;;;;;;;8.00;6.00;;;;;8.18;100.00;98960.25;4990524;28;10426;-71
2021/12/28 07:24:50;;;;;;;;;7.50;6.50;;;;;8.21;100.00;98967.91;4990685;28;10164;-71
2021/12/28 07:27:17;;;;;;;;;9.25;8.25;;;;;8.23;100.00;98949.66;4990453;28;10411;-71
2021/12/28 07:29:43;;;;;;;;;8.25;7.25;;;;;8.24;100.00;98962.91;5005380;28;10042;-71
2021/12/28 07:32:10;;;;;;;;;8.00;5.00;;;;;8.24;100.00;98957.50;4988909;28;10376;-71
2021/12/28 07:34:36;;;;;;;;;5.00;4.00;;;;;8.26;100.00;98960.00;4990700;28;10365;-70
2021/12/28 07:37:03;;;;;;;;;4.25;4.00;;;;;8.26;100.00;98955.41;4990573;28;10148;-71
2021/12/28 07:39:29;;;;;;;;;6.25;6.25;;;;;8.28;100.00;98956.03;4990537;28;10166;-71
2021/12/28 07:41:56;;;;;;;;;7.50;4.50;;;;;8.29;100.00;98954.97;4990461;28;10291;-70
2021/12/28 07:44:23;;;;;;;;;7.25;6.50;;;;;8.30;100.00;98955.81;4989101;28;10282;-70
2021/12/28 07:46:49;;;;;;;;;11.25;8.00;;;;;8.29;100.00;98949.59;4989111;28;10357;-71
2021/12/28 07:49:16;;;;;;;;;7.00;4.75;;;;;8.29;100.00;98948.75;5003690;28;10269;-71
2021/12/28 07:51:43;;;;;;;;;9.50;6.50;;;;;8.33;100.00;98947.28;4990382;28;10201;-71
2021/12/28 07:54:09;;;;;;;;;12.00;9.00;;;;;8.36;100.00;98946.03;4990445;28;10236;-71
2021/12/28 07:56:37;;;;;;;;;7.75;6.00;;;;;8.37;100.00;98942.28;4990238;28;10448;-71
2021/12/28 07:59:04;;;;;;;;;4.00;4.00;;;;;8.37;100.00;98934.19;4988734;28;10241;-71
2021/12/28 08:01:33;;;;;;;;;8.75;8.75;;;;;8.37;100.00;98943.09;4988992;28;10025;-70
2021/12/28 08:04:00;;;;;;;;;10.00;7.50;;;;;8.37;100.00;98932.31;4990347;28;10237;-72
2021/12/28 08:06:27;;;;;;;;;12.00;8.00;;;;;8.39;100.00;98935.63;4988345;28;10399;-71
2021/12/28 08:08:53;;;;;;;;;6.25;6.25;;;;;8.38;100.00;98933.16;4990111;28;10384;-71
2021/12/28 08:11:20;;;;;;;;;8.50;5.75;;;;;8.40;100.00;98920.28;4989859;28;10253;-71
2021/12/28 08:13:47;;;;;;;;;4.50;3.00;;;;;8.40;100.00;98931.06;4990227;28;10272;-71
2021/12/28 08:16:13;;;;;;;;;11.50;7.00;;;;;8.40;100.00;98929.19;4987243;28;10895;-70
2021/12/28 08:18:40;;;;;;;;;4.50;4.50;;;;;8.43;100.00;98933.34;4988234;28;10378;-71
2021/12/28 08:21:07;;;;;;;;;6.75;4.00;;;;;8.43;100.00;98926.06;4988937;28;11088;-71
2021/12/28 08:23:33;;;;;;;;;12.25;7.00;;;;;8.43;100.00;98928.75;4989895;28;10294;-71
2021/12/28 08:26:00;;;;;;;;;7.00;7.00;;;;;8.45;100.00;98931.25;4988552;28;10457;-71
2021/12/28 08:28:27;;;;;;;;;7.25;6.00;;;;;8.46;100.00;98922.09;4989163;28;10326;-71
2021/12/28 08:30:54;;;;;;;;;7.75;7.50;;;;;8.47;100.00;98919.19;4987250;28;10322;-71
2021/12/28 08:33:20;;;;;;;;;5.25;5.25;;;;;8.49;100.00;98918.94;4987763;28;11037;-71
2021/12/28 08:35:47;;;;;;;;;9.00;6.75;;;;;8.51;100.00;98911.47;4989050;28;10328;-71
2021/12/28 08:38:13;;;;;;;;;7.00;7.00;;;;;8.49;100.00;98916.25;4989139;28;10190;-71
2021/12/28 08:40:42;;;;;;;;;12.75;9.75;;;;;8.51;100.00;98912.28;4989004;28;10453;-71
2021/12/28 08:43:09;;;;;;;;;8.75;8.25;;;;;8.51;100.00;98906.88;4988914;28;10319;-72
2021/12/28 08:45:38;;;;;;;;;6.00;5.25;;;;;8.51;100.00;98906.88;4986591;28;10331;-72
2021/12/28 08:48:05;;;;;;;;;5.25;5.25;;;;;8.53;100.00;98903.97;4988178;28;10127;-71
2021/12/28 08:50:33;;;;;;;;;4.00;4.00;;;;;8.53;100.00;98902.09;4988493;28;10311;-71
2021/12/28 08:52:59;;;;;;;;;7.25;5.25;;;;;8.55;100.00;98908.09;4989024;28;10141;-72
2021/12/28 08:55:26;;;;;;;;;6.00;6.00;;;;;8.57;100.00;98906.00;4988513;28;10323;-72
2021/12/28 08:57:52;;;;;;;;;7.00;5.00;;;;;8.56;100.00;98893.56;4988200;28;10408;-71
2021/12/28 09:00:32;;;;;;;;;6.75;4.75;;;;;8.57;100.00;98897.06;4987928;28;10108;-71
2021/12/28 09:02:59;;;;;;;;;8.25;4.25;;;;;8.60;100.00;98891.22;4988824;28;10309;-69
2021/12/28 09:05:28;;;;;;;;;5.50;5.00;;;;;8.59;100.00;98889.59;4988365;28;10144;-70
2021/12/28 09:07:55;;;;;;;;;2.00;1.25;;;;;8.61;100.00;98885.59;4986395;28;11019;-69
2021/12/28 09:10:25;;;;;;;;;4.00;4.00;;;;;8.62;100.00;98884.56;4988472;28;10026;-70
2021/12/28 09:12:53;;;;;;;;;4.00;4.00;;;;;8.62;100.00;98881.03;5003516;28;10200;-70
2021/12/28 09:15:20;;;;;;;;;6.25;6.25;;;;;8.63;100.00;98875.41;5003471;28;10359;-70
2021/12/28 09:17:46;;;;;;;;;8.50;4.00;;;;;8.64;100.00;98877.06;4987845;28;10564;-71
2021/12/28 09:20:18;;;;;;;;;7.50;6.00;;;;;8.66;100.00;98867.91;4986494;28;10177;-70
2021/12/28 09:23:04;;;;;;;;;8.00;6.00;;;;;8.66;100.00;98865.22;4988087;28;10358;-70
2021/12/28 09:25:31;;;;;;;;;6.25;2.00;;;;;8.65;100.00;98867.09;4987479;28;10891;-70
2021/12/28 09:27:58;;;;;;;;;6.75;5.00;;;;;8.67;100.00;98858.78;5002313;28;10356;-70
2021/12/28 09:30:24;;;;;;;;;5.50;4.00;;;;;8.67;100.00;98850.69;5003058;28;10188;-70
2021/12/28 09:32:51;;;;;;;;;4.00;4.00;;;;;8.69;100.00;98864.81;5002723;28;10269;-71
2021/12/28 09:35:18;;;;;;;;;5.25;3.75;;;;;8.69;100.00;98857.53;4988011;28;10176;-70
2021/12/28 09:37:45;;;;;;;;;7.75;6.25;;;;;8.69;100.00;98856.72;4986448;28;10109;-72
2021/12/28 09:40:12;;;;;;;;;2.00;2.00;;;;;8.70;100.00;98855.66;4988138;28;10838;-70
2021/12/28 09:42:41;;;;;;;;;5.00;4.00;;;;;8.73;100.00;98860.59;5002712;28;10105;-70
2021/12/28 09:45:10;;;;;;;;;4.00;3.50;;;;;8.73;100.00;98855.19;4987704;28;10270;-69
2021/12/28 09:47:37;;;;;;;;;7.75;5.50;;;;;8.74;100.00;98854.16;4987268;28;10094;-69
2021/12/28 09:50:05;;;;;;;;;8.00;6.00;;;;;8.76;100.00;98843.97;4985582;28;10102;-70
2021/12/28 09:52:33;;;;;;;;;7.50;6.75;;;;;8.75;100.00;98843.13;4987072;28;10173;-70
2021/12/28 09:55:00;;;;;;;;;6.75;5.50;;;;;8.77;100.00;98848.31;4988128;28;10167;-69
2021/12/28 09:57:28;;;;;;;;;6.50;5.00;;;;;8.77;100.00;98834.81;5001396;28;10115;-70
2021/12/28 09:59:55;;;;;;;;;7.50;7.50;;;;;8.77;100.00;98832.94;4987658;28;10061;-70
2021/12/28 10:02:21;;;;;;;;;12.25;9.00;;;;;8.78;100.00;98823.78;4987363;28;10250;-71
2021/12/28 10:05:00;;;;;;;;;6.50;6.50;;;;;8.82;100.00;98819.59;4987687;28;10276;-70
2021/12/28 10:07:30;;;;;;;;;9.00;7.00;;;;;8.83;100.00;98817.72;4986699;28;10295;-71
2021/12/28 10:09:56;;;;;;;;;12.00;8.25;;;;;8.84;100.00;98816.66;4987592;28;10168;-71
2021/12/28 10:12:36;;;;;;;;;5.00;4.50;;;;;8.87;100.00;98811.63;4986225;28;10329;-70
2021/12/28 10:15:08;;;;;;;;;10.25;8.00;;;;;8.89;100.00;98806.00;4987007;28;10122;-71
2021/12/28 10:17:37;;;;;;;;;9.50;9.50;;;;;8.91;100.00;98801.19;4986642;28;10189;-71
2021/12/28 10:20:10;;;;;;;;;9.50;9.50;;;;;8.93;100.00;98799.94;4987434;28;10385;-71
2021/12/28 10:22:38;;;;;;;;;6.75;6.75;;;;;8.96;100.00;98798.66;4984666;28;10239;-71
2021/12/28 10:25:30;;;;;;;;;8.75;8.75;;;;;8.96;100.00;98792.44;4986566;28;10280;-71
2021/12/28 10:28:03;;;;;;;;;13.50;10.00;;;;;8.96;100.00;98790.56;4986433;28;10382;-71
2021/12/28 10:30:45;;;;;;;;;8.25;8.25;;;;;8.98;100.00;98784.94;5002231;28;10444;-70
2021/12/28 10:33:15;;;;;;;;;9.00;9.00;;;;;8.96;100.00;98777.06;4986834;28;10311;-71
2021/12/28 10:35:56;;;;;;;;;9.75;9.00;;;;;8.98;100.00;98777.66;5001289;28;10140;-71
2021/12/28 10:38:25;;;;;;;;;9.75;8.25;;;;;9.00;100.00;98769.31;4986862;28;10155;-70
2021/12/28 10:40:59;;;;;;;;;11.25;11.25;;;;;9.03;100.00;98761.59;4985734;28;10377;-70
2021/12/28 10:43:33;;;;;;;;;12.25;10.50;;;;;9.02;100.00;98756.44;4987039;28;10179;-70
2021/12/28 10:46:05;;;;;;;;;10.25;8.50;;;;;9.03;100.00;98752.66;4986185;28;10191;-70
2021/12/28 10:48:43;;;;;;;;;10.00;9.50;;;;;9.04;100.00;98743.53;4986544;28;10090;-71
2021/12/28 10:51:16;;;;;;;;;8.00;8.00;;;;;9.06;100.00;98746.81;4987058;28;10336;-71
2021/12/28 10:53:52;;;;;;;;;11.75;8.25;;;;;9.05;100.00;98739.75;4986910;28;10097;-69
2021/12/28 10:56:18;;;;;;;;;13.75;12.25;;;;;9.05;100.00;98745.16;4986203;28;10998;-72
2021/12/28 10:58:46;;;;;;;;;11.75;9.50;;;;;9.07;100.00;98735.78;4985202;28;11096;-70
2021/12/28 11:01:17;;;;;;;;;13.00;8.50;;;;;9.09;100.00;98740.94;4986432;28;10486;-70
2021/12/28 11:03:49;;;;;;;;;6.75;6.75;;;;;9.11;100.00;98725.34;4985878;28;10313;-70
2021/12/28 11:06:30;;;;;;;;;13.25;10.50;;;;;9.12;100.00;98726.97;5001250;28;10182;-70
2021/12/28 11:09:00;;;;;;;;;8.00;8.00;;;;;9.11;100.00;98731.56;4984642;28;10502;-69
2021/12/28 11:11:28;;;;;;;;;10.00;9.00;;;;;9.13;100.00;98725.94;4986259;28;10088;-71
2021/12/28 11:13:59;;;;;;;;;5.50;5.50;;;;;9.12;100.00;98726.97;4986860;28;10303;-69
2021/12/28 11:16:27;;;;;;;;;6.00;5.00;;;;;9.12;100.00;98717.00;4985919;28;10304;-70
2021/12/28 11:18:59;;;;;;;;;8.25;7.25;;;;;9.12;100.00;98713.50;4984981;28;10099;-70
2021/12/28 11:21:28;;;;;;;;;10.00;6.00;;;;;9.13;100.00;98715.13;4986712;28;10090;-71
2021/12/28 11:24:03;;;;;;;;;7.00;7.00;;;;;9.13;100.00;98705.16;4984878;28;10953;-69
2021/12/28 11:26:41;;;;;;;;;8.75;7.75;;;;;9.11;100.00;98701.88;4985957;28;10223;-70
2021/12/28 11:29:16;;;;;;;;;7.00;7.00;;;;;9.13;100.00;98699.75;4988259;28;10102;-70
2021/12/28 11:32:01;;;;;;;;;8.00;7.25;;;;;9.13;100.00;98704.34;5004984;28;10095;-70
2021/12/28 11:34:31;;;;;;;;;9.25;8.50;;;;;9.14;100.00;98695.19;4988874;28;10262;-70